createdAt,value
2023-04-25T00:02:25.977Z,8.76
2023-04-25T00:07:29.492Z,8.70
2023-04-25T00:12:31.848Z,8.61
2023-04-25T00:17:34.214Z,8.61
2023-04-25T00:22:37.858Z,8.60
2023-04-25T00:27:40.239Z,8.63
2023-04-25T00:32:42.455Z,8.62
2023-04-25T00:37:46.015Z,8.65
2023-04-25T00:42:48.557Z,8.64
2023-04-25T00:47:50.968Z,8.55
2023-04-25T00:52:54.459Z,8.56
2023-04-25T00:57:56.587Z,8.56
2023-04-25T01:02:59.841Z,8.49
2023-04-25T01:08:03.842Z,8.41
2023-04-25T01:13:06.552Z,8.38
2023-04-25T01:18:08.292Z,8.34
2023-04-25T01:23:13.762Z,8.29
2023-04-25T01:28:15.851Z,8.27
2023-04-25T01:33:20.132Z,8.28
2023-04-25T01:38:23.869Z,8.23
2023-04-25T01:43:26.256Z,8.20
2023-04-25T01:48:28.526Z,8.18
2023-04-25T01:53:32.047Z,8.18
2023-04-25T01:58:34.292Z,8.20
2023-04-25T02:03:36.496Z,8.09
2023-04-25T02:08:40.060Z,8.05
2023-04-25T02:13:42.422Z,8.05
2023-04-25T02:18:44.511Z,8.03
2023-04-25T02:23:48.106Z,8.00
2023-04-25T02:28:50.355Z,7.97
2023-04-25T02:33:52.910Z,7.95
2023-04-25T02:38:56.516Z,7.98
2023-04-25T02:43:58.998Z,7.99
2023-04-25T02:49:01.110Z,7.93
2023-04-25T02:54:04.676Z,7.96
2023-04-25T02:59:07.000Z,7.95
2023-04-25T03:04:09.057Z,8.04
2023-04-25T03:09:12.459Z,7.96
2023-04-25T03:14:14.829Z,7.89
2023-04-25T03:19:17.006Z,7.87
2023-04-25T03:24:20.580Z,7.94
2023-04-25T03:29:22.930Z,7.96
2023-04-25T03:34:24.934Z,7.93
2023-04-25T03:39:28.408Z,7.91
2023-04-25T03:49:32.717Z,7.83
2023-04-25T03:54:35.735Z,7.69
2023-04-25T03:59:37.856Z,7.69
2023-04-25T04:04:40.164Z,7.72
2023-04-25T04:09:43.792Z,7.68
2023-04-25T04:14:45.979Z,7.76
2023-04-25T04:19:47.703Z,7.78
2023-04-25T04:24:51.530Z,7.75
2023-04-25T04:29:53.634Z,7.85
2023-04-25T04:34:55.731Z,7.88
2023-04-25T04:39:59.187Z,7.89
2023-04-25T04:45:00.877Z,7.92
2023-04-25T04:50:03.127Z,8.03
2023-04-25T04:55:07.806Z,8.14
2023-04-25T05:00:11.274Z,8.18
2023-04-25T05:05:13.329Z,8.30
2023-04-25T05:10:16.796Z,8.24
2023-04-25T05:15:19.221Z,8.28
2023-04-25T05:20:21.106Z,8.26
2023-04-25T05:25:24.221Z,8.38
2023-04-25T05:30:26.287Z,8.50
2023-04-25T05:35:28.055Z,8.50
2023-04-25T05:40:31.554Z,8.44
2023-04-25T05:45:34.071Z,8.36
2023-04-25T05:50:36.149Z,8.91
2023-04-25T05:55:39.787Z,8.90
2023-04-25T06:00:41.491Z,9.46
2023-04-25T06:05:44.033Z,9.54
2023-04-25T06:10:47.388Z,9.35
2023-04-25T06:15:49.363Z,9.36
2023-04-25T06:20:51.041Z,9.30
2023-04-25T06:25:56.396Z,9.26
2023-04-25T06:30:58.379Z,9.31
2023-04-25T06:36:00.124Z,9.32
2023-04-25T06:41:22.013Z,9.41
2023-04-25T06:46:24.298Z,9.22
2023-04-25T06:51:26.013Z,8.98
2023-04-25T06:56:29.950Z,9.06
2023-04-25T07:01:31.813Z,9.06
2023-04-25T07:06:33.598Z,9.09
2023-04-25T07:11:37.519Z,9.07
2023-04-25T07:16:39.836Z,8.71
2023-04-25T07:21:42.036Z,8.46
2023-04-25T07:26:45.238Z,8.36
2023-04-25T07:31:47.102Z,8.60
2023-04-25T07:36:48.890Z,8.52
2023-04-25T07:41:54.990Z,8.66
2023-04-25T07:46:57.110Z,8.71
2023-04-25T07:51:59.195Z,9.08
2023-04-25T07:57:02.658Z,9.23
2023-04-25T08:02:04.523Z,8.84
2023-04-25T08:07:06.635Z,8.75
2023-04-25T08:12:09.673Z,8.84
2023-04-25T08:17:12.014Z,9.21
2023-04-25T08:22:13.776Z,10.35
2023-04-25T08:27:17.319Z,10.03
2023-04-25T08:32:19.490Z,9.64
2023-04-25T08:37:21.669Z,9.54
2023-04-25T08:42:28.051Z,9.88
2023-04-25T08:47:31.172Z,9.97
2023-04-25T08:52:37.552Z,10.82
2023-04-25T08:57:42.158Z,11.81
2023-04-25T09:02:44.981Z,12.63
2023-04-25T09:07:48.549Z,15.05
2023-04-25T09:13:05.602Z,14.63
2023-04-25T09:18:07.943Z,13.43
2023-04-25T09:23:10.232Z,13.56
2023-04-25T09:28:13.674Z,14.49
2023-04-25T09:33:15.818Z,14.71
2023-04-25T09:38:19.737Z,13.28
2023-04-25T09:43:24.943Z,11.73
2023-04-25T09:48:28.828Z,12.88
2023-04-25T09:53:30.985Z,14.15
2023-04-25T09:58:35.053Z,15.05
2023-04-25T10:03:38.463Z,12.54
2023-04-25T10:08:41.830Z,12.29
2023-04-25T10:13:46.665Z,12.57
2023-04-25T10:18:49.868Z,12.30
2023-04-25T10:23:53.110Z,12.10
2023-04-25T10:29:00.951Z,12.08
2023-04-25T10:34:02.737Z,11.84
2023-04-25T10:39:06.253Z,11.27
2023-04-25T10:44:09.983Z,11.28
2023-04-25T10:49:13.656Z,10.84
2023-04-25T10:54:19.175Z,10.80
2023-04-25T10:59:26.400Z,10.65
2023-04-25T11:04:31.516Z,10.97
2023-04-25T11:09:34.887Z,10.73
2023-04-25T11:19:43.582Z,10.93
2023-04-25T11:24:46.919Z,10.29
2023-04-25T11:29:50.589Z,10.17
2023-04-25T11:34:53.948Z,10.15
2023-04-25T11:39:56.022Z,10.21
2023-04-25T11:44:59.469Z,10.54
2023-04-25T11:50:01.979Z,10.41
2023-04-25T11:55:06.281Z,10.51
2023-04-25T12:00:14.505Z,11.00
2023-04-25T12:10:26.300Z,10.66
2023-04-25T12:15:29.758Z,10.99
2023-04-25T12:20:32.614Z,10.98
2023-04-25T12:25:39.128Z,11.71
2023-04-25T12:30:59.991Z,12.86
2023-04-25T12:36:04.472Z,12.23
2023-04-25T12:41:08.321Z,11.03
2023-04-25T12:46:11.709Z,10.89
2023-04-25T12:51:13.830Z,10.83
2023-04-25T12:56:15.586Z,10.61
2023-04-25T13:01:18.767Z,10.87
2023-04-25T13:06:21.856Z,11.00
2023-04-25T13:11:23.795Z,10.61
2023-04-25T13:16:26.959Z,10.96
2023-04-25T13:21:31.476Z,11.74
2023-04-25T13:26:33.481Z,11.26
2023-04-25T13:31:36.888Z,11.35
2023-04-25T13:36:39.048Z,11.35
2023-04-25T13:41:41.083Z,11.44
2023-04-25T13:46:47.219Z,11.08
2023-04-25T13:51:50.045Z,10.75
2023-04-25T13:56:52.135Z,10.42
2023-04-25T14:01:55.885Z,10.16
2023-04-25T14:06:58.282Z,9.83
2023-04-25T14:12:00.384Z,9.80
2023-04-25T14:17:04.323Z,9.69
2023-04-25T14:22:06.962Z,9.47
2023-04-25T14:27:09.107Z,9.20
2023-04-25T14:32:12.715Z,9.32
2023-04-25T14:37:14.798Z,9.61
2023-04-25T14:42:16.881Z,9.99
2023-04-25T14:47:20.247Z,10.25
2023-04-25T14:52:21.921Z,10.15
2023-04-25T14:57:23.637Z,9.84
2023-04-25T15:02:27.410Z,9.66
2023-04-25T15:07:29.590Z,9.52
2023-04-25T15:12:31.634Z,9.81
2023-04-25T15:17:35.311Z,10.17
2023-04-25T15:22:37.848Z,10.36
2023-04-25T15:27:40.809Z,10.36
2023-04-25T15:32:44.717Z,10.12
2023-04-25T15:37:47.237Z,9.87
2023-04-25T15:42:50.772Z,9.83
2023-04-25T15:47:55.417Z,9.70
2023-04-25T15:52:57.120Z,9.90
2023-04-25T15:57:59.140Z,9.95
2023-04-25T16:03:02.890Z,10.03
2023-04-25T16:08:04.880Z,10.07
2023-04-25T16:13:06.981Z,9.95
2023-04-25T16:18:10.516Z,9.65
2023-04-25T16:23:12.756Z,9.38
2023-04-25T16:28:14.831Z,9.08
2023-04-25T16:33:17.978Z,8.79
2023-04-25T16:38:20.236Z,8.63
2023-04-25T16:43:22.293Z,8.71
2023-04-25T16:48:25.654Z,8.72
2023-04-25T16:53:27.535Z,8.72
2023-04-25T16:58:29.700Z,9.31
2023-04-25T17:03:34.851Z,9.82
2023-04-25T17:08:37.792Z,9.64
2023-04-25T17:13:39.901Z,9.56
2023-04-25T17:18:43.464Z,9.58
2023-04-25T17:23:45.800Z,8.98
2023-04-25T17:28:47.740Z,8.72
2023-04-25T17:33:50.763Z,8.53
2023-04-25T17:38:52.566Z,8.53
2023-04-25T17:43:54.483Z,8.36
2023-04-25T17:48:57.781Z,8.36
2023-04-25T17:53:59.463Z,8.23
2023-04-25T17:59:01.260Z,8.29
2023-04-25T18:04:05.090Z,8.27
2023-04-25T18:09:07.543Z,8.17
2023-04-25T18:14:09.522Z,7.99
2023-04-25T18:19:13.079Z,7.84
2023-04-25T18:24:15.593Z,7.72
2023-04-25T18:29:31.402Z,7.56
2023-04-25T18:34:37.462Z,7.49
2023-04-25T18:39:39.656Z,7.47
2023-04-25T18:44:41.775Z,7.64
2023-04-25T18:49:45.367Z,7.67
2023-04-25T18:54:47.125Z,7.73
2023-04-25T18:59:48.881Z,7.71
2023-04-25T19:04:51.998Z,7.63
2023-04-25T19:09:53.841Z,7.52
2023-04-25T19:14:55.592Z,7.43
2023-04-25T19:19:58.790Z,7.20
2023-04-25T19:25:09.906Z,7.09
2023-04-25T19:30:13.796Z,7.04
2023-04-25T19:35:17.656Z,6.86
2023-04-25T19:40:19.997Z,6.62
2023-04-25T19:45:22.368Z,6.35
2023-04-25T19:50:25.575Z,6.18
2023-04-25T19:55:27.502Z,6.09
2023-04-25T20:00:29.191Z,6.11
2023-04-25T20:05:32.301Z,6.19
2023-04-25T20:10:34.239Z,6.08
2023-04-25T20:15:36.184Z,6.09
2023-04-25T20:20:39.346Z,5.90
2023-04-25T20:25:41.349Z,5.71
2023-04-25T20:30:44.088Z,5.66
2023-04-25T20:35:47.418Z,5.65
2023-04-25T20:40:49.635Z,5.59
2023-04-25T20:45:51.520Z,5.53
2023-04-25T20:50:54.560Z,5.62
2023-04-25T20:55:56.744Z,5.71
2023-04-25T21:00:59.060Z,5.74
2023-04-25T21:06:02.661Z,5.89
2023-04-25T21:11:04.825Z,6.00
2023-04-25T21:16:07.335Z,6.06
2023-04-25T21:21:10.626Z,5.94
2023-04-25T21:26:12.933Z,5.97
2023-04-25T21:31:15.119Z,5.95
2023-04-25T21:36:18.705Z,5.85
2023-04-25T21:41:20.745Z,5.75
2023-04-25T21:46:23.836Z,5.60
2023-04-25T21:51:27.481Z,5.42
2023-04-25T21:56:29.407Z,5.24
2023-04-25T22:01:31.648Z,5.22
2023-04-25T22:06:35.180Z,5.12
2023-04-25T22:11:37.282Z,5.05
2023-04-25T22:16:39.754Z,5.11
2023-04-25T22:21:43.742Z,5.18
2023-04-25T22:26:46.122Z,5.05
2023-04-25T22:31:48.137Z,4.98
2023-04-25T22:36:51.554Z,5.02
2023-04-25T22:41:53.768Z,5.02
2023-04-25T22:46:55.913Z,5.03
2023-04-25T22:51:59.392Z,4.87
2023-04-25T22:57:01.569Z,4.76
2023-04-25T23:02:03.755Z,4.65
2023-04-25T23:07:06.894Z,4.71
2023-04-25T23:12:08.868Z,4.47
2023-04-25T23:17:10.806Z,4.58
2023-04-25T23:22:14.442Z,4.54
2023-04-25T23:27:17.040Z,4.54
2023-04-25T23:32:19.395Z,4.59
2023-04-25T23:37:23.024Z,4.43
2023-04-25T23:42:25.121Z,4.36
2023-04-25T23:47:27.298Z,4.31
2023-04-25T23:52:30.818Z,4.15
2023-04-25T23:57:33.248Z,4.13
